sensor_id;sensor_type;location;lat;lon;timestamp;pressure;altitude;pressure_sealevel;temperature;humidity
20696;BME280;10507;52.754;13.040;2024-02-14T00:00:02;101198.13;;;2.61;100.00
20696;BME280;10507;52.754;13.040;2024-02-14T00:02:29;101198.16;;;2.57;100.00
20696;BME280;10507;52.754;13.040;2024-02-14T00:04:56;101204.28;;;2.60;100.00
20696;BME280;10507;52.754;13.040;2024-02-14T00:07:24;101205.16;;;2.62;100.00
20696;BME280;10507;52.754;13.040;2024-02-14T00:09:52;101204.25;;;2.62;100.00
20696;BME280;10507;52.754;13.040;2024-02-14T00:12:18;101199.91;;;2.58;100.00
20696;BME280;10507;52.754;13.040;2024-02-14T00:14:45;101203.47;;;2.52;100.00
20696;BME280;10507;52.754;13.040;2024-02-14T00:17:12;101199.09;;;2.49;100.00
20696;BME280;10507;52.754;13.040;2024-02-14T00:19:38;101200.00;;;2.47;100.00
20696;BME280;10507;52.754;13.040;2024-02-14T00:22:05;101213.19;;;2.45;100.00
20696;BME280;10507;52.754;13.040;2024-02-14T00:24:33;101217.63;;;2.40;100.00
20696;BME280;10507;52.754;13.040;2024-02-14T00:27:01;101221.13;;;2.39;100.00
20696;BME280;10507;52.754;13.040;2024-02-14T00:29:28;101225.50;;;2.43;100.00
20696;BME280;10507;52.754;13.040;2024-02-14T00:31:55;101220.22;;;2.43;100.00
20696;BME280;10507;52.754;13.040;2024-02-14T00:34:22;101229.03;;;2.42;100.00
20696;BME280;10507;52.754;13.040;2024-02-14T00:36:49;101233.41;;;2.42;100.00
20696;BME280;10507;52.754;13.040;2024-02-14T00:39:15;101236.06;;;2.40;100.00
20696;BME280;10507;52.754;13.040;2024-02-14T00:41:46;101231.69;;;2.35;100.00
20696;BME280;10507;52.754;13.040;2024-02-14T00:44:13;101236.09;;;2.34;100.00
20696;BME280;10507;52.754;13.040;2024-02-14T00:46:42;101237.03;;;2.27;100.00
20696;BME280;10507;52.754;13.040;2024-02-14T00:49:08;101237.03;;;2.24;100.00
20696;BME280;10507;52.754;13.040;2024-02-14T00:51:35;101227.41;;;2.23;100.00
20696;BME280;10507;52.754;13.040;2024-02-14T00:54:02;101230.03;;;2.23;100.00
20696;BME280;10507;52.754;13.040;2024-02-14T00:56:29;101238.81;;;2.25;100.00
20696;BME280;10507;52.754;13.040;2024-02-14T00:58:57;101232.66;;;2.23;100.00
20696;BME280;10507;52.754;13.040;2024-02-14T01:01:24;101235.25;;;2.26;100.00
20696;BME280;10507;52.754;13.040;2024-02-14T01:03:51;101223.00;;;2.26;100.00
20696;BME280;10507;52.754;13.040;2024-02-14T01:06:17;101228.22;;;2.29;100.00
20696;BME280;10507;52.754;13.040;2024-02-14T01:08:45;101226.47;;;2.28;100.00
20696;BME280;10507;52.754;13.040;2024-02-14T01:11:12;101219.44;;;2.31;100.00
20696;BME280;10507;52.754;13.040;2024-02-14T01:13:38;101225.59;;;2.28;100.00
20696;BME280;10507;52.754;13.040;2024-02-14T01:16:06;101223.81;;;2.30;100.00
20696;BME280;10507;52.754;13.040;2024-02-14T01:18:33;101215.97;;;2.27;100.00
20696;BME280;10507;52.754;13.040;2024-02-14T01:21:01;101214.19;;;2.27;100.00
20696;BME280;10507;52.754;13.040;2024-02-14T01:23:27;101216.84;;;2.24;100.00
20696;BME280;10507;52.754;13.040;2024-02-14T01:25:54;101215.13;;;2.20;100.00
20696;BME280;10507;52.754;13.040;2024-02-14T01:28:21;101205.47;;;2.16;100.00
20696;BME280;10507;52.754;13.040;2024-02-14T01:30:47;101207.28;;;2.11;100.00
20696;BME280;10507;52.754;13.040;2024-02-14T01:33:17;101212.53;;;2.08;100.00
20696;BME280;10507;52.754;13.040;2024-02-14T01:35:43;101209.91;;;2.10;100.00
20696;BME280;10507;52.754;13.040;2024-02-14T01:38:10;101200.28;;;2.07;100.00
20696;BME280;10507;52.754;13.040;2024-02-14T01:40:38;101209.94;;;2.06;100.00
20696;BME280;10507;52.754;13.040;2024-02-14T01:43:04;101202.91;;;2.05;100.00
20696;BME280;10507;52.754;13.040;2024-02-14T01:45:31;101202.03;;;2.06;100.00
20696;BME280;10507;52.754;13.040;2024-02-14T01:47:58;101205.50;;;2.12;100.00
20696;BME280;10507;52.754;13.040;2024-02-14T01:50:26;101204.59;;;2.17;100.00
20696;BME280;10507;52.754;13.040;2024-02-14T01:52:56;101199.31;;;2.17;100.00
20696;BME280;10507;52.754;13.040;2024-02-14T01:55:24;101199.28;;;2.22;100.00
20696;BME280;10507;52.754;13.040;2024-02-14T01:57:52;101188.75;;;2.22;100.00
20696;BME280;10507;52.754;13.040;2024-02-14T02:00:19;101175.56;;;2.25;100.00
20696;BME280;10507;52.754;13.040;2024-02-14T02:02:46;101183.47;;;2.25;100.00
20696;BME280;10507;52.754;13.040;2024-02-14T02:05:13;101184.34;;;2.27;100.00
20696;BME280;10507;52.754;13.040;2024-02-14T02:07:42;101172.91;;;2.28;100.00
20696;BME280;10507;52.754;13.040;2024-02-14T02:10:10;101183.44;;;2.31;100.00
20696;BME280;10507;52.754;13.040;2024-02-14T02:12:36;101171.16;;;2.27;100.00
20696;BME280;10507;52.754;13.040;2024-02-14T02:15:05;101171.13;;;2.32;100.00
20696;BME280;10507;52.754;13.040;2024-02-14T02:17:31;101165.00;;;2.31;100.00
20696;BME280;10507;52.754;13.040;2024-02-14T02:19:59;101173.72;;;2.33;100.00
20696;BME280;10507;52.754;13.040;2024-02-14T02:22:26;101166.69;;;2.35;100.00
20696;BME280;10507;52.754;13.040;2024-02-14T02:24:55;101160.56;;;2.36;100.00
20696;BME280;10507;52.754;13.040;2024-02-14T02:27:22;101148.25;;;2.38;100.00
20696;BME280;10507;52.754;13.040;2024-02-14T02:29:48;101152.59;;;2.41;100.00
20696;BME280;10507;52.754;13.040;2024-02-14T02:32:15;101149.97;;;2.41;100.00
20696;BME280;10507;52.754;13.040;2024-02-14T02:34:43;101146.47;;;2.37;100.00
20696;BME280;10507;52.754;13.040;2024-02-14T02:37:10;101133.31;;;2.39;100.00
20696;BME280;10507;52.754;13.040;2024-02-14T02:39:37;101135.03;;;2.41;100.00
20696;BME280;10507;52.754;13.040;2024-02-14T02:42:06;101131.53;;;2.41;100.00
20696;BME280;10507;52.754;13.040;2024-02-14T02:44:33;101139.44;;;2.42;100.00
20696;BME280;10507;52.754;13.040;2024-02-14T02:47:03;101135.91;;;2.42;100.00
20696;BME280;10507;52.754;13.040;2024-02-14T02:49:30;101140.31;;;2.41;100.00
20696;BME280;10507;52.754;13.040;2024-02-14T02:51:56;101139.44;;;2.42;100.00
20696;BME280;10507;52.754;13.040;2024-02-14T02:54:23;101142.94;;;2.40;100.00
20696;BME280;10507;52.754;13.040;2024-02-14T02:56:50;101149.13;;;2.39;100.00
20696;BME280;10507;52.754;13.040;2024-02-14T02:59:17;101143.84;;;2.40;100.00
20696;BME280;10507;52.754;13.040;2024-02-14T03:01:44;101141.16;;;2.45;100.00
20696;BME280;10507;52.754;13.040;2024-02-14T03:04:11;101133.25;;;2.45;100.00
20696;BME280;10507;52.754;13.040;2024-02-14T03:06:38;101128.81;;;2.48;100.00
20696;BME280;10507;52.754;13.040;2024-02-14T03:09:05;101123.53;;;2.48;100.00
20696;BME280;10507;52.754;13.040;2024-02-14T03:11:32;101120.88;;;2.53;100.00
20696;BME280;10507;52.754;13.040;2024-02-14T03:14:01;101120.00;;;2.56;100.00
20696;BME280;10507;52.754;13.040;2024-02-14T03:16:29;101112.91;;;2.58;100.00
20696;BME280;10507;52.754;13.040;2024-02-14T03:18:56;101105.00;;;2.59;100.00
20696;BME280;10507;52.754;13.040;2024-02-14T03:21:21;101106.78;;;2.59;100.00
20696;BME280;10507;52.754;13.040;2024-02-14T03:23:48;101107.63;;;2.61;100.00
20696;BME280;10507;52.754;13.040;2024-02-14T03:26:15;101110.25;;;2.62;100.00
20696;BME280;10507;52.754;13.040;2024-02-14T03:28:41;101118.09;;;2.68;100.00
20696;BME280;10507;52.754;13.040;2024-02-14T03:31:09;101106.66;;;2.69;100.00
20696;BME280;10507;52.754;13.040;2024-02-14T03:33:42;101089.94;;;2.69;100.00
20696;BME280;10507;52.754;13.040;2024-02-14T03:36:08;101080.31;;;2.66;100.00
20696;BME280;10507;52.754;13.040;2024-02-14T03:38:35;101082.94;;;2.68;100.00
20696;BME280;10507;52.754;13.040;2024-02-14T03:41:05;101064.41;;;2.76;100.00
20696;BME280;10507;52.754;13.040;2024-02-14T03:43:31;101064.44;;;2.73;100.00
20696;BME280;10507;52.754;13.040;2024-02-14T03:45:58;101068.81;;;2.75;100.00
20696;BME280;10507;52.754;13.040;2024-02-14T03:48:25;101077.53;;;2.80;100.00
20696;BME280;10507;52.754;13.040;2024-02-14T03:50:53;101077.50;;;2.85;100.00
20696;BME280;10507;52.754;13.040;2024-02-14T03:53:20;101064.28;;;2.88;100.00
20696;BME280;10507;52.754;13.040;2024-02-14T03:55:46;101066.00;;;2.92;100.00
20696;BME280;10507;52.754;13.040;2024-02-14T03:58:14;101071.22;;;2.97;100.00
20696;BME280;10507;52.754;13.040;2024-02-14T04:00:42;101059.81;;;2.93;100.00
20696;BME280;10507;52.754;13.040;2024-02-14T04:03:11;101055.47;;;2.89;100.00
20696;BME280;10507;52.754;13.040;2024-02-14T04:05:38;101062.53;;;2.85;100.00
20696;BME280;10507;52.754;13.040;2024-02-14T04:08:06;101066.13;;;2.80;100.00
20696;BME280;10507;52.754;13.040;2024-02-14T04:10:35;101071.44;;;2.77;100.00
20696;BME280;10507;52.754;13.040;2024-02-14T04:13:03;101083.72;;;2.78;100.00
20696;BME280;10507;52.754;13.040;2024-02-14T04:15:29;101089.88;;;2.78;100.00
20696;BME280;10507;52.754;13.040;2024-02-14T04:17:56;101091.63;;;2.78;100.00
20696;BME280;10507;52.754;13.040;2024-02-14T04:20:23;101104.78;;;2.81;100.00
20696;BME280;10507;52.754;13.040;2024-02-14T04:22:50;101102.97;;;2.86;100.00
20696;BME280;10507;52.754;13.040;2024-02-14T04:25:18;101102.97;;;2.86;100.00
20696;BME280;10507;52.754;13.040;2024-02-14T04:27:45;101102.91;;;2.89;100.00
20696;BME280;10507;52.754;13.040;2024-02-14T04:30:12;101102.06;;;2.88;100.00
20696;BME280;10507;52.754;13.040;2024-02-14T04:32:38;101095.00;;;2.92;100.00
20696;BME280;10507;52.754;13.040;2024-02-14T04:35:06;101098.44;;;2.99;100.00
20696;BME280;10507;52.754;13.040;2024-02-14T04:37:34;101097.47;;;3.04;100.00
20696;BME280;10507;52.754;13.040;2024-02-14T04:40:00;101083.34;;;3.10;100.00
20696;BME280;10507;52.754;13.040;2024-02-14T04:42:31;101085.00;;;3.19;100.00
20696;BME280;10507;52.754;13.040;2024-02-14T04:44:57;101077.94;;;3.21;100.00
20696;BME280;10507;52.754;13.040;2024-02-14T04:47:24;101071.66;;;3.29;100.00
20696;BME280;10507;52.754;13.040;2024-02-14T04:49:51;101063.72;;;3.31;100.00
20696;BME280;10507;52.754;13.040;2024-02-14T04:52:18;101056.66;;;3.33;100.00
20696;BME280;10507;52.754;13.040;2024-02-14T04:54:44;101046.06;;;3.36;100.00
20696;BME280;10507;52.754;13.040;2024-02-14T04:57:11;101038.19;;;3.31;100.00
20696;BME280;10507;52.754;13.040;2024-02-14T04:59:39;101040.84;;;3.31;100.00
20696;BME280;10507;52.754;13.040;2024-02-14T05:02:06;101032.91;;;3.31;100.00
20696;BME280;10507;52.754;13.040;2024-02-14T05:04:32;101027.66;;;3.31;100.00
20696;BME280;10507;52.754;13.040;2024-02-14T05:07:00;101025.00;;;3.33;100.00
20696;BME280;10507;52.754;13.040;2024-02-14T05:09:28;101035.50;;;3.36;100.00
20696;BME280;10507;52.754;13.040;2024-02-14T05:11:54;101020.56;;;3.37;100.00
20696;BME280;10507;52.754;13.040;2024-02-14T05:14:21;101018.78;;;3.36;100.00
20696;BME280;10507;52.754;13.040;2024-02-14T05:16:50;101024.97;;;3.35;100.00
20696;BME280;10507;52.754;13.040;2024-02-14T05:19:16;101022.34;;;3.35;100.00
20696;BME280;10507;52.754;13.040;2024-02-14T05:21:43;101024.94;;;3.36;100.00
20696;BME280;10507;52.754;13.040;2024-02-14T05:24:09;101034.63;;;3.36;100.00
20696;BME280;10507;52.754;13.040;2024-02-14T05:26:36;101022.38;;;3.31;100.00
20696;BME280;10507;52.754;13.040;2024-02-14T05:29:03;101027.63;;;3.35;100.00
20696;BME280;10507;52.754;13.040;2024-02-14T05:31:42;101015.31;;;3.33;100.00
20696;BME280;10507;52.754;13.040;2024-02-14T05:34:10;101011.72;;;3.38;100.00
20696;BME280;10507;52.754;13.040;2024-02-14T05:36:37;101007.38;;;3.37;100.00
20696;BME280;10507;52.754;13.040;2024-02-14T05:39:04;101012.72;;;3.32;100.00
20696;BME280;10507;52.754;13.040;2024-02-14T05:41:31;101016.16;;;3.34;100.00
20696;BME280;10507;52.754;13.040;2024-02-14T05:43:58;101019.66;;;3.36;100.00
20696;BME280;10507;52.754;13.040;2024-02-14T05:46:25;101017.00;;;3.38;100.00
20696;BME280;10507;52.754;13.040;2024-02-14T05:48:52;101012.66;;;3.35;100.00
20696;BME280;10507;52.754;13.040;2024-02-14T05:51:21;101015.28;;;3.37;100.00
20696;BME280;10507;52.754;13.040;2024-02-14T05:53:48;101012.59;;;3.38;100.00
20696;BME280;10507;52.754;13.040;2024-02-14T05:56:14;101022.31;;;3.36;100.00
20696;BME280;10507;52.754;13.040;2024-02-14T05:58:41;101019.66;;;3.36;100.00
20696;BME280;10507;52.754;13.040;2024-02-14T06:01:07;101022.28;;;3.38;100.00
20696;BME280;10507;52.754;13.040;2024-02-14T06:03:34;101029.34;;;3.39;100.00
20696;BME280;10507;52.754;13.040;2024-02-14T06:06:01;101032.75;;;3.44;100.00
20696;BME280;10507;52.754;13.040;2024-02-14T06:08:29;101027.44;;;3.47;100.00
20696;BME280;10507;52.754;13.040;2024-02-14T06:10:55;101020.38;;;3.49;100.00
20696;BME280;10507;52.754;13.040;2024-02-14T06:13:22;101022.94;;;3.52;100.00
20696;BME280;10507;52.754;13.040;2024-02-14T06:15:49;101019.50;;;3.50;100.00
20696;BME280;10507;52.754;13.040;2024-02-14T06:18:15;101005.44;;;3.48;100.00
20696;BME280;10507;52.754;13.040;2024-02-14T06:20:42;101008.03;;;3.51;100.00
20696;BME280;10507;52.754;13.040;2024-02-14T06:23:09;101002.75;;;3.49;100.00
20696;BME280;10507;52.754;13.040;2024-02-14T06:25:37;100998.38;;;3.50;100.00
20696;BME280;10507;52.754;13.040;2024-02-14T06:28:03;100989.63;;;3.45;100.00
20696;BME280;10507;52.754;13.040;2024-02-14T06:30:30;100989.63;;;3.46;100.00
20696;BME280;10507;52.754;13.040;2024-02-14T06:32:57;100988.75;;;3.46;100.00
20696;BME280;10507;52.754;13.040;2024-02-14T06:35:25;100974.63;;;3.47;100.00
20696;BME280;10507;52.754;13.040;2024-02-14T06:37:52;100985.13;;;3.53;100.00
20696;BME280;10507;52.754;13.040;2024-02-14T06:40:19;100980.69;;;3.53;100.00
20696;BME280;10507;52.754;13.040;2024-02-14T06:42:47;100981.53;;;3.57;100.00
20696;BME280;10507;52.754;13.040;2024-02-14T06:45:15;100970.09;;;3.57;100.00
20696;BME280;10507;52.754;13.040;2024-02-14T06:47:42;100970.94;;;3.59;100.00
20696;BME280;10507;52.754;13.040;2024-02-14T06:50:09;100967.41;;;3.61;100.00
20696;BME280;10507;52.754;13.040;2024-02-14T06:52:36;100981.44;;;3.63;100.00
20696;BME280;10507;52.754;13.040;2024-02-14T06:55:03;100990.16;;;3.68;100.00
20696;BME280;10507;52.754;13.040;2024-02-14T06:57:29;100997.06;;;3.75;100.00
20696;BME280;10507;52.754;13.040;2024-02-14T06:59:57;100989.13;;;3.77;100.00
20696;BME280;10507;52.754;13.040;2024-02-14T07:02:24;100989.06;;;3.82;100.00
20696;BME280;10507;52.754;13.040;2024-02-14T07:04:53;100974.09;;;3.81;100.00
20696;BME280;10507;52.754;13.040;2024-02-14T07:07:20;100987.19;;;3.87;100.00
20696;BME280;10507;52.754;13.040;2024-02-14T07:09:46;100987.19;;;3.87;100.00
20696;BME280;10507;52.754;13.040;2024-02-14T07:12:13;100972.25;;;3.86;100.00
20696;BME280;10507;52.754;13.040;2024-02-14T07:14:40;100988.94;;;3.88;100.00
20696;BME280;10507;52.754;13.040;2024-02-14T07:17:08;100989.75;;;3.93;100.00
20696;BME280;10507;52.754;13.040;2024-02-14T07:19:34;100987.13;;;3.91;100.00
20696;BME280;10507;52.754;13.040;2024-02-14T07:22:01;101000.22;;;3.99;100.00
20696;BME280;10507;52.754;13.040;2024-02-14T07:24:28;100994.00;;;4.02;100.00
20696;BME280;10507;52.754;13.040;2024-02-14T07:26:54;100998.28;;;4.07;100.00
20696;BME280;10507;52.754;13.040;2024-02-14T07:29:22;100998.28;;;4.07;100.00
20696;BME280;10507;52.754;13.040;2024-02-14T07:31:48;100991.09;;;4.15;100.00
20696;BME280;10507;52.754;13.040;2024-02-14T07:34:16;100990.25;;;4.15;100.00
20696;BME280;10507;52.754;13.040;2024-02-14T07:36:43;100979.59;;;4.18;100.00
20696;BME280;10507;52.754;13.040;2024-02-14T07:39:11;100975.09;;;4.25;100.00
20696;BME280;10507;52.754;13.040;2024-02-14T07:41:38;100978.50;;;4.30;100.00
20696;BME280;10507;52.754;13.040;2024-02-14T07:44:05;100960.81;;;4.35;100.00
20696;BME280;10507;52.754;13.040;2024-02-14T07:46:31;100972.94;;;4.44;100.00
20696;BME280;10507;52.754;13.040;2024-02-14T07:48:58;100967.56;;;4.48;100.00
20696;BME280;10507;52.754;13.040;2024-02-14T07:51:26;100956.13;;;4.48;100.00
20696;BME280;10507;52.754;13.040;2024-02-14T07:53:54;100950.75;;;4.52;100.00
20696;BME280;10507;52.754;13.040;2024-02-14T07:56:20;100953.38;;;4.52;100.00
20696;BME280;10507;52.754;13.040;2024-02-14T07:58:47;100956.69;;;4.64;100.00
20696;BME280;10507;52.754;13.040;2024-02-14T08:01:15;100944.31;;;4.66;100.00
20696;BME280;10507;52.754;13.040;2024-02-14T08:03:41;100946.91;;;4.69;100.00
20696;BME280;10507;52.754;13.040;2024-02-14T08:06:08;100942.31;;;4.77;100.00
20696;BME280;10507;52.754;13.040;2024-02-14T08:08:36;100937.75;;;4.84;100.00
20696;BME280;10507;52.754;13.040;2024-02-14T08:11:03;100925.44;;;4.83;100.00
20696;BME280;10507;52.754;13.040;2024-02-14T08:13:30;100921.88;;;4.84;100.00
20696;BME280;10507;52.754;13.040;2024-02-14T08:15:57;100930.53;;;4.92;100.00
20696;BME280;10507;52.754;13.040;2024-02-14T08:18:24;100919.00;;;4.94;100.00
20696;BME280;10507;52.754;13.040;2024-02-14T08:20:52;100917.94;;;5.02;100.00
20696;BME280;10507;52.754;13.040;2024-02-14T08:23:19;100927.28;;;5.18;100.00
20696;BME280;10507;52.754;13.040;2024-02-14T08:25:47;100914.00;;;5.19;100.00
20696;BME280;10507;52.754;13.040;2024-02-14T08:28:14;100907.66;;;5.27;100.00
20696;BME280;10507;52.754;13.040;2024-02-14T08:30:43;100910.03;;;5.37;99.91
20696;BME280;10507;52.754;13.040;2024-02-14T08:33:10;100887.31;;;5.29;99.42
20696;BME280;10507;52.754;13.040;2024-02-14T08:35:37;100908.16;;;5.42;99.89
20696;BME280;10507;52.754;13.040;2024-02-14T08:38:04;100902.84;;;5.42;99.68
20696;BME280;10507;52.754;13.040;2024-02-14T08:40:31;100903.75;;;5.43;99.61
20696;BME280;10507;52.754;13.040;2024-02-14T08:42:59;100902.06;;;5.39;100.00
20696;BME280;10507;52.754;13.040;2024-02-14T08:45:26;100923.22;;;5.40;100.00
20696;BME280;10507;52.754;13.040;2024-02-14T08:47:55;100932.88;;;5.43;100.00
20696;BME280;10507;52.754;13.040;2024-02-14T08:50:21;100945.06;;;5.49;100.00
20696;BME280;10507;52.754;13.040;2024-02-14T08:52:48;100945.16;;;5.46;100.00
20696;BME280;10507;52.754;13.040;2024-02-14T08:55:15;100960.25;;;5.42;100.00
20696;BME280;10507;52.754;13.040;2024-02-14T08:57:43;100954.09;;;5.40;100.00
20696;BME280;10507;52.754;13.040;2024-02-14T09:00:15;100974.22;;;5.49;100.00
20696;BME280;10507;52.754;13.040;2024-02-14T09:02:44;100988.28;;;5.51;100.00
20696;BME280;10507;52.754;13.040;2024-02-14T09:05:12;101002.22;;;5.59;100.00
20696;BME280;10507;52.754;13.040;2024-02-14T09:07:38;100995.25;;;5.55;100.00
20696;BME280;10507;52.754;13.040;2024-02-14T09:10:07;101001.50;;;5.52;100.00
20696;BME280;10507;52.754;13.040;2024-02-14T09:12:35;100996.13;;;5.55;100.00
20696;BME280;10507;52.754;13.040;2024-02-14T09:15:03;101008.41;;;5.58;100.00
20696;BME280;10507;52.754;13.040;2024-02-14T09:17:32;101000.41;;;5.61;100.00
20696;BME280;10507;52.754;13.040;2024-02-14T09:19:58;100999.63;;;5.56;100.00
20696;BME280;10507;52.754;13.040;2024-02-14T09:22:25;100999.53;;;5.60;100.00
20696;BME280;10507;52.754;13.040;2024-02-14T09:24:52;100998.53;;;5.66;100.00
20696;BME280;10507;52.754;13.040;2024-02-14T09:27:19;100995.97;;;5.63;100.00
20696;BME280;10507;52.754;13.040;2024-02-14T09:29:46;100990.56;;;5.66;100.00
20696;BME280;10507;52.754;13.040;2024-02-14T09:32:13;100988.06;;;5.60;100.00
20696;BME280;10507;52.754;13.040;2024-02-14T09:34:41;100981.91;;;5.59;100.00
20696;BME280;10507;52.754;13.040;2024-02-14T09:37:07;100968.78;;;5.55;100.00
20696;BME280;10507;52.754;13.040;2024-02-14T09:39:34;100971.28;;;5.61;100.00
20696;BME280;10507;52.754;13.040;2024-02-14T09:42:08;100985.78;;;5.80;100.00
20696;BME280;10507;52.754;13.040;2024-02-14T09:44:35;100985.41;;;5.97;100.00
20696;BME280;10507;52.754;13.040;2024-02-14T09:47:05;100976.28;;;6.09;100.00
20696;BME280;10507;52.754;13.040;2024-02-14T09:49:32;100970.56;;;6.24;100.00
20696;BME280;10507;52.754;13.040;2024-02-14T09:52:01;100952.28;;;6.14;100.00
20696;BME280;10507;52.754;13.040;2024-02-14T09:54:29;100963.69;;;6.17;100.00
20696;BME280;10507;52.754;13.040;2024-02-14T09:56:57;100960.00;;;6.23;100.00
20696;BME280;10507;52.754;13.040;2024-02-14T09:59:24;100951.09;;;6.26;100.00
20696;BME280;10507;52.754;13.040;2024-02-14T10:01:51;100957.97;;;6.33;100.00
20696;BME280;10507;52.754;13.040;2024-02-14T10:04:18;100955.03;;;6.43;100.00
20696;BME280;10507;52.754;13.040;2024-02-14T10:06:47;100930.78;;;6.24;100.00
20696;BME280;10507;52.754;13.040;2024-02-14T10:09:20;100941.88;;;6.39;100.00
20696;BME280;10507;52.754;13.040;2024-02-14T10:11:46;100937.19;;;6.49;100.00
20696;BME280;10507;52.754;13.040;2024-02-14T10:14:13;100937.94;;;6.54;100.00
20696;BME280;10507;52.754;13.040;2024-02-14T10:16:40;100927.88;;;6.65;100.00
20696;BME280;10507;52.754;13.040;2024-02-14T10:19:14;100913.88;;;6.60;100.00
20696;BME280;10507;52.754;13.040;2024-02-14T10:21:41;100912.81;;;6.65;100.00
20696;BME280;10507;52.754;13.040;2024-02-14T10:24:08;100917.22;;;6.66;100.00
20696;BME280;10507;52.754;13.040;2024-02-14T10:26:37;100894.53;;;6.56;100.00
20696;BME280;10507;52.754;13.040;2024-02-14T10:29:06;100918.47;;;6.55;100.00
20696;BME280;10507;52.754;13.040;2024-02-14T10:31:35;100908.56;;;6.60;100.00
20696;BME280;10507;52.754;13.040;2024-02-14T10:34:02;100908.63;;;6.58;100.00
20696;BME280;10507;52.754;13.040;2024-02-14T10:36:31;100892.41;;;6.68;100.00
20696;BME280;10507;52.754;13.040;2024-02-14T10:39:00;100873.03;;;6.65;100.00
20696;BME280;10507;52.754;13.040;2024-02-14T10:41:30;100875.59;;;6.69;100.00
20696;BME280;10507;52.754;13.040;2024-02-14T10:44:02;100860.13;;;6.83;100.00
20696;BME280;10507;52.754;13.040;2024-02-14T10:46:31;100845.19;;;6.79;100.00
20696;BME280;10507;52.754;13.040;2024-02-14T10:49:02;100850.31;;;6.85;100.00
20696;BME280;10507;52.754;13.040;2024-02-14T10:51:31;100845.72;;;6.90;100.00
20696;BME280;10507;52.754;13.040;2024-02-14T10:53:58;100846.69;;;6.87;100.00
20696;BME280;10507;52.754;13.040;2024-02-14T10:56:28;100840.28;;;6.95;100.00
20696;BME280;10507;52.754;13.040;2024-02-14T10:58:56;100834.81;;;6.99;100.00
20696;BME280;10507;52.754;13.040;2024-02-14T11:01:26;100825.94;;;7.00;100.00
20696;BME280;10507;52.754;13.040;2024-02-14T11:03:56;100840.94;;;7.01;100.00
20696;BME280;10507;52.754;13.040;2024-02-14T11:06:23;100823.19;;;7.03;100.00
20696;BME280;10507;52.754;13.040;2024-02-14T11:08:58;100834.72;;;7.02;100.00
20696;BME280;10507;52.754;13.040;2024-02-14T11:11:28;100832.91;;;7.04;100.00
20696;BME280;10507;52.754;13.040;2024-02-14T11:13:56;100828.59;;;7.00;100.00
20696;BME280;10507;52.754;13.040;2024-02-14T11:16:26;100829.56;;;6.98;100.00
20696;BME280;10507;52.754;13.040;2024-02-14T11:18:53;100843.59;;;7.01;100.00
20696;BME280;10507;52.754;13.040;2024-02-14T11:21:28;100849.53;;;7.10;100.00
20696;BME280;10507;52.754;13.040;2024-02-14T11:23:55;100855.81;;;7.07;100.00
20696;BME280;10507;52.754;13.040;2024-02-14T11:26:24;100843.81;;;7.22;100.00
20696;BME280;10507;52.754;13.040;2024-02-14T11:28:59;100841.16;;;7.22;100.00
20696;BME280;10507;52.754;13.040;2024-02-14T11:31:32;100853.25;;;7.31;100.00
20696;BME280;10507;52.754;13.040;2024-02-14T11:34:03;100855.69;;;7.38;100.00
20696;BME280;10507;52.754;13.040;2024-02-14T11:36:31;100836.47;;;7.30;100.00
20696;BME280;10507;52.754;13.040;2024-02-14T11:38:58;100853.09;;;7.35;100.00
20696;BME280;10507;52.754;13.040;2024-02-14T11:41:27;100857.31;;;7.42;100.00
20696;BME280;10507;52.754;13.040;2024-02-14T11:43:53;100854.66;;;7.42;100.00
20696;BME280;10507;52.754;13.040;2024-02-14T11:46:20;100864.03;;;7.53;100.00
20696;BME280;10507;52.754;13.040;2024-02-14T11:48:48;100856.22;;;7.48;100.00
20696;BME280;10507;52.754;13.040;2024-02-14T11:51:15;100864.75;;;7.58;100.00
20696;BME280;10507;52.754;13.040;2024-02-14T11:53:42;100849.75;;;7.57;100.00
20696;BME280;10507;52.754;13.040;2024-02-14T11:56:08;100853.00;;;7.65;100.00
20696;BME280;10507;52.754;13.040;2024-02-14T11:58:35;100855.25;;;7.76;100.00
20696;BME280;10507;52.754;13.040;2024-02-14T12:01:03;100850.03;;;7.74;100.00
20696;BME280;10507;52.754;13.040;2024-02-14T12:03:31;100853.34;;;7.81;100.00
20696;BME280;10507;52.754;13.040;2024-02-14T12:05:59;100848.88;;;7.81;100.00
20696;BME280;10507;52.754;13.040;2024-02-14T12:08:28;100846.91;;;7.86;100.00
20696;BME280;10507;52.754;13.040;2024-02-14T12:10:55;100851.00;;;7.97;100.00
20696;BME280;10507;52.754;13.040;2024-02-14T12:13:22;100835.94;;;7.96;100.00
20696;BME280;10507;52.754;13.040;2024-02-14T12:15:50;100849.25;;;7.96;100.00
20696;BME280;10507;52.754;13.040;2024-02-14T12:18:19;100837.59;;;8.00;100.00
20696;BME280;10507;52.754;13.040;2024-02-14T12:20:46;100837.38;;;8.06;100.00
20696;BME280;10507;52.754;13.040;2024-02-14T12:23:16;100846.84;;;8.13;100.00
20696;BME280;10507;52.754;13.040;2024-02-14T12:25:44;100836.34;;;8.10;100.00
20696;BME280;10507;52.754;13.040;2024-02-14T12:28:13;100847.53;;;8.18;100.00
20696;BME280;10507;52.754;13.040;2024-02-14T12:30:44;100839.56;;;8.18;100.00
20696;BME280;10507;52.754;13.040;2024-02-14T12:33:12;100863.28;;;8.24;100.00
20696;BME280;10507;52.754;13.040;2024-02-14T12:35:42;100854.38;;;8.25;100.00
20696;BME280;10507;52.754;13.040;2024-02-14T12:38:09;100859.59;;;8.28;100.00
20696;BME280;10507;52.754;13.040;2024-02-14T12:40:38;100868.03;;;8.41;100.00